Time;durP1;ratioP1;P1;durP2;ratioP2;P2;SDS_P1;SDS_P2;PMS_P1;PMS_P2;Temp;Humidity;BMP_temperature;BMP_pressure;BME280_temperature;BME280_humidity;BME280_pressure;Samples;Min_cycle;Max_cycle;Signal;HPM_P1;HPM_P2
2023/12/03 00:02:14;;;;;;;145.82;38.47;;;;;;;;;;6303124;28;20431;-57
2023/12/03 00:05:15;;;;;;;163.95;40.85;;;;;;;;;;6314219;28;20048;-58
2023/12/03 00:08:16;;;;;;;146.30;41.42;;;;;;;;;;6312593;28;20047;-59
2023/12/03 00:11:17;;;;;;;145.57;40.03;;;;;;;;;;6315466;28;20047;-59
2023/12/03 00:14:18;;;;;;;161.25;42.75;;;;;;;;;;6315700;28;20063;-58
2023/12/03 00:17:18;;;;;;;154.35;42.22;;;;;;;;;;6312892;28;20052;-58
2023/12/03 00:20:19;;;;;;;151.40;42.00;;;;;;;;;;6315117;28;20040;-59
2023/12/03 00:23:19;;;;;;;149.90;42.50;;;;;;;;;;6313518;28;20036;-59
2023/12/03 00:26:20;;;;;;;131.85;38.13;;;;;;;;;;6314483;28;20129;-59
2023/12/03 00:29:21;;;;;;;130.10;37.00;;;;;;;;;;6315052;28;20048;-59
2023/12/03 00:32:21;;;;;;;132.60;36.67;;;;;;;;;;6314851;28;20129;-58
2023/12/03 00:35:22;;;;;;;116.85;33.55;;;;;;;;;;6313750;28;20079;-57
2023/12/03 00:38:23;;;;;;;120.40;33.33;;;;;;;;;;6316617;28;20055;-58
2023/12/03 00:41:24;;;;;;;122.13;32.75;;;;;;;;;;6314398;28;20048;-58
2023/12/03 00:44:25;;;;;;;112.28;33.83;;;;;;;;;;6315502;28;20044;-59
2023/12/03 00:47:26;;;;;;;100.95;29.35;;;;;;;;;;6313427;28;20135;-59
2023/12/03 00:50:27;;;;;;;85.50;26.65;;;;;;;;;;6314683;28;20527;-58
2023/12/03 00:53:27;;;;;;;95.25;26.92;;;;;;;;;;6289834;28;20047;-58
2023/12/03 00:56:28;;;;;;;87.15;25.17;;;;;;;;;;6312999;28;20055;-57
2023/12/03 00:59:28;;;;;;;77.10;24.17;;;;;;;;;;6313259;28;20474;-59
2023/12/03 01:02:29;;;;;;;69.30;22.02;;;;;;;;;;6314817;28;20841;-57
2023/12/03 01:05:30;;;;;;;72.43;21.45;;;;;;;;;;6314108;28;20056;-57
2023/12/03 01:08:31;;;;;;;72.40;23.02;;;;;;;;;;6313551;28;20048;-56
2023/12/03 01:11:31;;;;;;;65.00;20.73;;;;;;;;;;6311287;28;20050;-57
2023/12/03 01:14:32;;;;;;;63.72;21.15;;;;;;;;;;6314069;28;20120;-59
2023/12/03 01:17:33;;;;;;;65.05;20.85;;;;;;;;;;6313541;28;20059;-59
2023/12/03 01:20:33;;;;;;;71.85;21.25;;;;;;;;;;6314260;28;20048;-59
2023/12/03 01:23:34;;;;;;;68.10;21.38;;;;;;;;;;6312817;28;20040;-57
2023/12/03 01:26:35;;;;;;;66.35;20.33;;;;;;;;;;6312520;28;20544;-57
2023/12/03 01:29:35;;;;;;;65.50;19.98;;;;;;;;;;6308237;28;20041;-56
2023/12/03 01:32:36;;;;;;;56.92;18.70;;;;;;;;;;6281525;28;20105;-55
2023/12/03 01:35:36;;;;;;;65.65;19.30;;;;;;;;;;6313329;28;20051;-58
2023/12/03 01:38:37;;;;;;;67.90;19.52;;;;;;;;;;6311689;28;20044;-57
2023/12/03 01:41:38;;;;;;;64.13;20.30;;;;;;;;;;6313338;28;20052;-58
2023/12/03 01:44:39;;;;;;;64.40;20.10;;;;;;;;;;6314135;28;20086;-58
2023/12/03 01:47:39;;;;;;;58.53;18.75;;;;;;;;;;6313012;28;20094;-59
2023/12/03 01:50:41;;;;;;;62.90;18.38;;;;;;;;;;6313812;28;20052;-56
2023/12/03 01:53:43;;;;;;;57.25;18.45;;;;;;;;;;6314247;28;20052;-58
2023/12/03 01:56:44;;;;;;;55.15;18.10;;;;;;;;;;6314602;28;20075;-58
2023/12/03 01:59:45;;;;;;;58.83;18.25;;;;;;;;;;6309716;28;20410;-58
2023/12/03 02:02:46;;;;;;;49.15;17.95;;;;;;;;;;6315548;28;21220;-58
2023/12/03 02:06:06;;;;;;;43.70;16.08;;;;;;;;;;6318282;28;20036;-57
2023/12/03 02:09:07;;;;;;;49.63;15.68;;;;;;;;;;6318386;28;20050;-58
2023/12/03 02:12:08;;;;;;;50.05;16.40;;;;;;;;;;6317461;28;20048;-59
2023/12/03 02:15:09;;;;;;;46.10;16.23;;;;;;;;;;6318151;28;20066;-58
2023/12/03 02:18:10;;;;;;;50.60;15.32;;;;;;;;;;6317490;28;20040;-57
2023/12/03 02:21:11;;;;;;;44.30;14.60;;;;;;;;;;6316798;28;20134;-58
2023/12/03 02:24:12;;;;;;;43.83;14.10;;;;;;;;;;6317856;28;20408;-57
2023/12/03 02:27:12;;;;;;;43.05;14.90;;;;;;;;;;6315953;28;20086;-55
2023/12/03 02:30:13;;;;;;;40.47;13.48;;;;;;;;;;6313932;28;20043;-57
2023/12/03 02:33:14;;;;;;;42.40;13.88;;;;;;;;;;6316927;28;20047;-57
2023/12/03 02:36:15;;;;;;;39.28;13.68;;;;;;;;;;6317602;28;20460;-57
2023/12/03 02:39:16;;;;;;;44.83;13.85;;;;;;;;;;6316490;28;20056;-58
2023/12/03 02:42:16;;;;;;;41.92;13.90;;;;;;;;;;6316444;28;20048;-58
2023/12/03 02:45:17;;;;;;;46.03;14.07;;;;;;;;;;6317472;28;20099;-58
2023/12/03 02:48:18;;;;;;;37.28;13.32;;;;;;;;;;6315428;28;20491;-59
2023/12/03 02:51:19;;;;;;;34.45;12.63;;;;;;;;;;6316708;28;20040;-59
2023/12/03 02:54:20;;;;;;;42.20;12.93;;;;;;;;;;6319405;28;20056;-58
2023/12/03 02:57:21;;;;;;;37.28;13.23;;;;;;;;;;6317616;28;20059;-58
2023/12/03 03:00:22;;;;;;;35.40;13.45;;;;;;;;;;6316760;28;20054;-57
2023/12/03 03:03:22;;;;;;;37.70;12.80;;;;;;;;;;6317058;28;20871;-57
2023/12/03 03:06:23;;;;;;;35.03;12.10;;;;;;;;;;6317613;28;20048;-58
2023/12/03 03:09:24;;;;;;;35.92;11.73;;;;;;;;;;6315765;28;20048;-56
2023/12/03 03:12:25;;;;;;;31.95;11.63;;;;;;;;;;6317264;28;20122;-58
2023/12/03 03:15:25;;;;;;;31.67;11.23;;;;;;;;;;6317441;28;20064;-59
2023/12/03 03:18:26;;;;;;;30.83;10.90;;;;;;;;;;6316337;28;20048;-58
2023/12/03 03:21:27;;;;;;;34.35;11.43;;;;;;;;;;6316395;28;20047;-58
2023/12/03 03:24:27;;;;;;;40.20;12.73;;;;;;;;;;6316919;28;20047;-57
2023/12/03 03:27:28;;;;;;;32.50;10.95;;;;;;;;;;6316146;28;20068;-56
2023/12/03 03:30:29;;;;;;;30.40;11.20;;;;;;;;;;6312280;28;20044;-58
2023/12/03 03:33:29;;;;;;;35.30;11.52;;;;;;;;;;6288335;28;20076;-59
2023/12/03 03:36:30;;;;;;;33.65;11.75;;;;;;;;;;6314570;28;20044;-59
2023/12/03 03:39:31;;;;;;;30.38;10.20;;;;;;;;;;6313177;28;20138;-58
2023/12/03 03:42:31;;;;;;;31.23;10.25;;;;;;;;;;6313878;28;20126;-56
2023/12/03 03:45:32;;;;;;;33.03;11.15;;;;;;;;;;6314417;28;20040;-59
2023/12/03 03:48:33;;;;;;;35.03;11.63;;;;;;;;;;6315417;28;20040;-54
2023/12/03 03:51:34;;;;;;;30.42;9.60;;;;;;;;;;6314886;28;20637;-58
2023/12/03 03:54:39;;;;;;;31.35;10.45;;;;;;;;;;6316934;28;20043;-58
2023/12/03 03:57:40;;;;;;;28.65;10.05;;;;;;;;;;6311695;28;20090;-57
2023/12/03 04:00:41;;;;;;;26.92;9.93;;;;;;;;;;6315794;28;20059;-59
2023/12/03 04:03:42;;;;;;;31.05;10.73;;;;;;;;;;6316330;28;20070;-58
2023/12/03 04:06:44;;;;;;;33.35;10.48;;;;;;;;;;6296402;28;20051;-58
2023/12/03 04:09:45;;;;;;;24.38;9.35;;;;;;;;;;6295968;28;20068;-58
2023/12/03 04:12:46;;;;;;;28.98;9.98;;;;;;;;;;6314823;28;20048;-58
2023/12/03 04:15:47;;;;;;;35.45;11.13;;;;;;;;;;6315679;28;20048;-58
2023/12/03 04:18:48;;;;;;;30.13;10.95;;;;;;;;;;6314715;28;20044;-58
2023/12/03 04:21:49;;;;;;;29.60;10.13;;;;;;;;;;6314690;28;20139;-58
2023/12/03 04:24:49;;;;;;;30.88;10.38;;;;;;;;;;6313506;28;20411;-58
2023/12/03 04:27:50;;;;;;;31.67;11.52;;;;;;;;;;6314225;28;20594;-57
2023/12/03 04:30:50;;;;;;;34.90;11.05;;;;;;;;;;6312854;28;20063;-58
2023/12/03 04:33:53;;;;;;;31.83;11.40;;;;;;;;;;6314777;28;20406;-58
2023/12/03 04:36:54;;;;;;;;;;;;;;;;;;6315346;28;20052;-59
2023/12/03 04:39:55;;;;;;;33.60;10.77;;;;;;;;;;6312504;28;19934;-59
2023/12/03 04:42:56;;;;;;;34.85;12.45;;;;;;;;;;6314010;28;20079;-59
2023/12/03 04:45:57;;;;;;;32.15;10.90;;;;;;;;;;6313439;28;20469;-58
2023/12/03 04:48:57;;;;;;;33.78;11.00;;;;;;;;;;6313212;28;20109;-57
2023/12/03 04:51:59;;;;;;;33.45;10.70;;;;;;;;;;6316714;28;20135;-59
2023/12/03 04:55:00;;;;;;;26.00;10.20;;;;;;;;;;6313317;28;20055;-57
2023/12/03 04:58:01;;;;;;;27.48;10.18;;;;;;;;;;6314758;28;20123;-57
2023/12/03 05:01:02;;;;;;;29.40;10.43;;;;;;;;;;6299444;28;20776;-58
2023/12/03 05:04:03;;;;;;;26.67;9.52;;;;;;;;;;6313000;28;20112;-59
2023/12/03 05:07:03;;;;;;;29.15;9.20;;;;;;;;;;6312589;28;20060;-58
2023/12/03 05:10:05;;;;;;;27.05;9.63;;;;;;;;;;6315796;28;20487;-56
2023/12/03 05:13:06;;;;;;;28.47;9.63;;;;;;;;;;6312297;28;20146;-59
2023/12/03 05:16:07;;;;;;;32.15;11.43;;;;;;;;;;6314278;28;20388;-59
2023/12/03 05:19:07;;;;;;;33.22;11.05;;;;;;;;;;6313109;28;20048;-58
2023/12/03 05:22:08;;;;;;;30.13;11.27;;;;;;;;;;6313883;28;20048;-57
2023/12/03 05:25:10;;;;;;;33.15;11.25;;;;;;;;;;6314303;28;20047;-60
2023/12/03 05:28:11;;;;;;;33.35;11.18;;;;;;;;;;6312422;28;20088;-57
2023/12/03 05:31:11;;;;;;;38.53;12.82;;;;;;;;;;6313266;28;20073;-58
2023/12/03 05:34:12;;;;;;;33.50;12.35;;;;;;;;;;6312728;28;20380;-60
2023/12/03 05:37:13;;;;;;;35.35;11.55;;;;;;;;;;6313051;28;20048;-59
2023/12/03 05:40:14;;;;;;;31.40;11.90;;;;;;;;;;6313619;28;20040;-56
2023/12/03 05:43:15;;;;;;;33.13;11.50;;;;;;;;;;6314059;28;20086;-58
2023/12/03 05:46:16;;;;;;;32.25;10.57;;;;;;;;;;6312184;28;20055;-59
2023/12/03 05:49:16;;;;;;;35.78;10.95;;;;;;;;;;6313293;28;20040;-60
2023/12/03 05:52:17;;;;;;;28.52;10.40;;;;;;;;;;6313665;28;20051;-59
2023/12/03 05:55:18;;;;;;;30.35;10.98;;;;;;;;;;6313791;28;20423;-59
2023/12/03 05:58:18;;;;;;;28.85;9.90;;;;;;;;;;6313177;28;20089;-57
2023/12/03 06:01:24;;;;;;;28.77;9.63;;;;;;;;;;6313147;28;20044;-59
2023/12/03 06:04:24;;;;;;;26.20;9.95;;;;;;;;;;6313943;28;20055;-59
2023/12/03 06:07:25;;;;;;;26.50;8.77;;;;;;;;;;6313985;28;20731;-58
2023/12/03 06:10:26;;;;;;;24.38;9.15;;;;;;;;;;6312469;28;20068;-57
2023/12/03 06:13:26;;;;;;;34.40;10.40;;;;;;;;;;6312850;28;20075;-59
2023/12/03 06:16:27;;;;;;;27.27;9.85;;;;;;;;;;6313364;28;20032;-59
2023/12/03 06:19:28;;;;;;;28.85;10.32;;;;;;;;;;6313389;28;20102;-59
2023/12/03 06:22:29;;;;;;;29.08;9.60;;;;;;;;;;6312565;28;20044;-59
2023/12/03 06:25:29;;;;;;;27.45;9.48;;;;;;;;;;6312339;28;20069;-59
2023/12/03 06:28:30;;;;;;;29.05;10.57;;;;;;;;;;6308999;28;20426;-57
2023/12/03 06:31:32;;;;;;;27.42;9.02;;;;;;;;;;6311967;28;20043;-58
2023/12/03 06:34:33;;;;;;;;;;;;;;;;;;6309199;28;20075;-58
2023/12/03 06:37:33;;;;;;;24.30;8.82;;;;;;;;;;6310988;28;20464;-57
2023/12/03 06:40:34;;;;;;;28.55;10.60;;;;;;;;;;6312527;28;20044;-58
2023/12/03 06:43:35;;;;;;;30.55;9.48;;;;;;;;;;6311235;28;20040;-58
2023/12/03 06:46:40;;;;;;;27.80;9.60;;;;;;;;;;6312389;28;20052;-59
2023/12/03 06:49:42;;;;;;;26.15;9.25;;;;;;;;;;6316687;28;20574;-59
2023/12/03 06:52:42;;;;;;;26.88;10.40;;;;;;;;;;6317786;28;20044;-59
2023/12/03 06:55:43;;;;;;;29.85;9.77;;;;;;;;;;6314988;28;20407;-58
2023/12/03 06:58:44;;;;;;;29.95;10.02;;;;;;;;;;6316464;28;20170;-60
2023/12/03 07:01:44;;;;;;;28.10;9.38;;;;;;;;;;6310478;28;20051;-58
2023/12/03 07:04:45;;;;;;;28.30;9.25;;;;;;;;;;6313122;28;20392;-59
2023/12/03 07:07:51;;;;;;;27.75;9.63;;;;;;;;;;6315329;28;20048;-59
2023/12/03 07:10:51;;;;;;;28.60;9.93;;;;;;;;;;6312804;28;20505;-60
2023/12/03 07:13:52;;;;;;;28.80;10.00;;;;;;;;;;6315681;28;20044;-57
2023/12/03 07:16:53;;;;;;;23.58;9.05;;;;;;;;;;6312677;28;20181;-58
2023/12/03 07:19:54;;;;;;;27.85;9.90;;;;;;;;;;6311689;28;20382;-57
2023/12/03 07:22:55;;;;;;;26.38;9.55;;;;;;;;;;6312915;28;20121;-58
2023/12/03 07:25:56;;;;;;;29.65;9.73;;;;;;;;;;6313456;28;20403;-58
2023/12/03 07:28:57;;;;;;;29.73;10.02;;;;;;;;;;6312625;28;20059;-58
2023/12/03 07:31:58;;;;;;;32.97;9.93;;;;;;;;;;6311526;28;20040;-58
2023/12/03 07:34:59;;;;;;;27.10;10.13;;;;;;;;;;6312891;28;20394;-58
2023/12/03 07:37:59;;;;;;;27.95;9.60;;;;;;;;;;6312450;28;20048;-57
2023/12/03 07:41:00;;;;;;;32.45;10.32;;;;;;;;;;6315731;28;20051;-59
2023/12/03 07:44:01;;;;;;;26.20;9.00;;;;;;;;;;6315863;28;20525;-58
2023/12/03 07:47:02;;;;;;;28.95;9.68;;;;;;;;;;6315109;28;20052;-58
2023/12/03 07:50:04;;;;;;;26.02;8.95;;;;;;;;;;6314814;28;20056;-58
2023/12/03 07:53:04;;;;;;;27.67;9.88;;;;;;;;;;6311397;28;20581;-58
2023/12/03 07:56:06;;;;;;;27.98;11.27;;;;;;;;;;6314631;28;20063;-57
2023/12/03 07:59:08;;;;;;;32.60;11.43;;;;;;;;;;6310719;28;20044;-53
2023/12/03 08:02:08;;;;;;;31.67;10.43;;;;;;;;;;6314155;28;20075;-58
2023/12/03 08:05:09;;;;;;;28.35;11.00;;;;;;;;;;6315257;28;20365;-57
2023/12/03 08:08:10;;;;;;;30.63;10.05;;;;;;;;;;6315796;28;20044;-58
2023/12/03 08:11:11;;;;;;;26.05;9.90;;;;;;;;;;6316636;28;20043;-55
2023/12/03 08:14:11;;;;;;;28.17;10.05;;;;;;;;;;6317115;28;20059;-54
2023/12/03 08:17:12;;;;;;;28.08;10.70;;;;;;;;;;6316025;28;20067;-58
2023/12/03 08:20:32;;;;;;;33.78;11.05;;;;;;;;;;6312559;28;20044;-57
2023/12/03 08:23:34;;;;;;;32.15;11.15;;;;;;;;;;6313939;28;20071;-55
2023/12/03 08:26:35;;;;;;;25.57;9.90;;;;;;;;;;6305200;28;20077;-54
2023/12/03 08:29:38;;;;;;;27.17;10.07;;;;;;;;;;6312618;28;20043;-57
2023/12/03 08:32:39;;;;;;;29.95;10.90;;;;;;;;;;6307774;28;20548;-57
2023/12/03 08:35:40;;;;;;;25.42;9.98;;;;;;;;;;6316996;28;20044;-55
2023/12/03 08:38:42;;;;;;;31.00;10.95;;;;;;;;;;6316274;28;20475;-54
2023/12/03 08:41:43;;;;;;;28.92;10.18;;;;;;;;;;6315603;28;20418;-52
2023/12/03 08:44:43;;;;;;;29.48;10.93;;;;;;;;;;6313731;28;20051;-55
2023/12/03 08:47:44;;;;;;;28.10;10.82;;;;;;;;;;6316058;28;20139;-54
2023/12/03 08:50:45;;;;;;;31.95;11.27;;;;;;;;;;6315374;28;20135;-55
2023/12/03 08:53:47;;;;;;;30.55;11.13;;;;;;;;;;6283695;28;20048;-53
2023/12/03 08:56:49;;;;;;;27.80;10.63;;;;;;;;;;6305205;28;20049;-58
2023/12/03 08:59:52;;;;;;;33.00;11.27;;;;;;;;;;6307364;28;20036;-60
2023/12/03 09:02:53;;;;;;;35.85;11.00;;;;;;;;;;6314094;28;20508;-58
2023/12/03 09:05:54;;;;;;;32.85;11.32;;;;;;;;;;6316500;28;20067;-58
2023/12/03 09:08:55;;;;;;;28.05;10.95;;;;;;;;;;6315232;28;20441;-58
2023/12/03 09:11:56;;;;;;;33.65;11.43;;;;;;;;;;6314199;28;20130;-58
2023/12/03 09:14:56;;;;;;;30.55;11.15;;;;;;;;;;6315755;28;20447;-58
2023/12/03 09:17:59;;;;;;;29.88;11.45;;;;;;;;;;6315181;28;20135;-58
2023/12/03 09:20:59;;;;;;;32.65;12.35;;;;;;;;;;6314990;28;20048;-58
2023/12/03 09:24:00;;;;;;;29.02;10.50;;;;;;;;;;6315316;28;20071;-57
2023/12/03 09:27:01;;;;;;;32.22;11.27;;;;;;;;;;6315786;28;20051;-53
2023/12/03 09:30:04;;;;;;;32.25;10.82;;;;;;;;;;6313375;28;20055;-58
2023/12/03 09:33:04;;;;;;;30.20;10.88;;;;;;;;;;6314691;28;20048;-54
2023/12/03 09:36:06;;;;;;;31.35;11.48;;;;;;;;;;6295185;28;20044;-58
2023/12/03 09:39:07;;;;;;;;;;;;;;;;;;6315539;28;20171;-57
2023/12/03 09:42:12;;;;;;;30.77;10.45;;;;;;;;;;6314219;28;19960;-57
2023/12/03 09:45:14;;;;;;;27.10;10.30;;;;;;;;;;6312667;28;20048;-54
2023/12/03 09:48:19;;;;;;;27.70;10.95;;;;;;;;;;6309277;28;20044;-57
2023/12/03 09:51:20;;;;;;;27.40;10.18;;;;;;;;;;6313915;28;20051;-57
2023/12/03 09:54:21;;;;;;;31.38;10.95;;;;;;;;;;6314430;28;20527;-57
2023/12/03 09:57:25;;;;;;;24.10;10.23;;;;;;;;;;6315173;28;20048;-54
2023/12/03 10:00:28;;;;;;;31.10;11.18;;;;;;;;;;6314047;28;20040;-57
2023/12/03 10:03:29;;;;;;;27.13;10.23;;;;;;;;;;6314014;28;20465;-58
2023/12/03 10:06:33;;;;;;;31.25;9.68;;;;;;;;;;6314973;28;20044;-58
2023/12/03 10:09:38;;;;;;;27.70;9.30;;;;;;;;;;6314654;28;20039;-55
2023/12/03 10:12:42;;;;;;;27.38;10.35;;;;;;;;;;6295125;28;20078;-57
2023/12/03 10:15:43;;;;;;;26.23;9.38;;;;;;;;;;6312738;28;20097;-54
2023/12/03 10:18:44;;;;;;;31.10;9.27;;;;;;;;;;6308867;28;20070;-55
2023/12/03 10:21:50;;;;;;;29.45;9.27;;;;;;;;;;6286927;28;20056;-55
2023/12/03 10:24:51;;;;;;;33.70;10.10;;;;;;;;;;6306428;28;20048;-59
2023/12/03 10:27:54;;;;;;;28.30;10.55;;;;;;;;;;6318121;28;20051;-56
2023/12/03 10:30:55;;;;;;;26.92;9.95;;;;;;;;;;6316526;28;20051;-57
2023/12/03 10:33:56;;;;;;;30.13;9.85;;;;;;;;;;6318692;28;20056;-56
2023/12/03 10:36:57;;;;;;;29.80;9.48;;;;;;;;;;6317356;28;20389;-55
2023/12/03 10:39:58;;;;;;;26.20;9.25;;;;;;;;;;6316086;28;20040;-57
2023/12/03 10:43:01;;;;;;;25.80;8.77;;;;;;;;;;6297553;28;20451;-59
2023/12/03 10:46:12;;;;;;;26.50;9.02;;;;;;;;;;6307934;28;20276;-58
2023/12/03 10:49:15;;;;;;;26.55;9.80;;;;;;;;;;6319572;28;20143;-58
2023/12/03 10:52:15;;;;;;;;;;;;;;;;;;6314705;28;20051;-58
2023/12/03 10:55:16;;;;;;;25.17;9.60;;;;;;;;;;6318558;28;19924;-56
2023/12/03 10:58:20;;;;;;;27.92;9.48;;;;;;;;;;6318279;28;20180;-58
2023/12/03 11:01:28;;;;;;;25.73;9.55;;;;;;;;;;6319271;28;20039;-58
2023/12/03 11:04:54;;;;;;;27.15;9.88;;;;;;;;;;6315504;28;20105;-58
2023/12/03 11:07:56;;;;;;;28.58;11.23;;;;;;;;;;6313568;28;20048;-59
2023/12/03 11:10:56;;;;;;;29.00;9.65;;;;;;;;;;6315740;28;20131;-58
2023/12/03 11:13:57;;;;;;;29.38;11.95;;;;;;;;;;6314984;28;20059;-59
2023/12/03 11:17:20;;;;;;;29.90;11.15;;;;;;;;;;6316949;28;20059;-59
2023/12/03 11:20:27;;;;;;;32.42;11.45;;;;;;;;;;6308807;28;20542;-59
2023/12/03 11:23:52;;;;;;;30.05;10.88;;;;;;;;;;6319245;28;20056;-58
2023/12/03 11:26:53;;;;;;;36.90;11.57;;;;;;;;;;6315811;28;20105;-58
2023/12/03 11:29:55;;;;;;;31.92;11.52;;;;;;;;;;6313588;28;20527;-57
2023/12/03 11:32:57;;;;;;;32.22;11.10;;;;;;;;;;6316190;28;20059;-57
2023/12/03 11:35:58;;;;;;;33.63;11.85;;;;;;;;;;6317639;28;20048;-58
2023/12/03 11:39:01;;;;;;;32.28;11.73;;;;;;;;;;6316087;28;20055;-57
2023/12/03 11:42:05;;;;;;;29.58;11.10;;;;;;;;;;6315231;28;20051;-56
2023/12/03 11:45:25;;;;;;;35.20;12.23;;;;;;;;;;6316725;28;20050;-56
2023/12/03 11:48:27;;;;;;;30.45;11.05;;;;;;;;;;6315810;28;20121;-55
2023/12/03 11:51:28;;;;;;;33.47;10.65;;;;;;;;;;6313994;28;20140;-58
2023/12/03 11:54:37;;;;;;;33.63;12.00;;;;;;;;;;6313599;28;20131;-54
2023/12/03 11:57:38;;;;;;;32.25;10.77;;;;;;;;;;6314345;28;20139;-59
2023/12/03 12:00:39;;;;;;;29.15;11.32;;;;;;;;;;6312415;28;20054;-59
2023/12/03 12:03:40;;;;;;;34.58;11.75;;;;;;;;;;6312981;28;20048;-56
2023/12/03 12:06:41;;;;;;;34.83;11.50;;;;;;;;;;6313899;28;20083;-58
2023/12/03 12:09:43;;;;;;;29.85;10.95;;;;;;;;;;6307143;28;20046;-60
2023/12/03 12:12:44;;;;;;;36.47;12.25;;;;;;;;;;6308328;28;20133;-58
2023/12/03 12:15:45;;;;;;;31.35;11.05;;;;;;;;;;6305252;28;20524;-57
2023/12/03 12:18:48;;;;;;;35.50;12.50;;;;;;;;;;6316308;28;20143;-57
2023/12/03 12:21:56;;;;;;;34.80;10.77;;;;;;;;;;6286195;28;20647;-56
2023/12/03 12:24:57;;;;;;;33.85;10.98;;;;;;;;;;6296950;28;20052;-59
2023/12/03 12:27:59;;;;;;;31.58;10.98;;;;;;;;;;6305763;28;20059;-55
2023/12/03 12:31:02;;;;;;;33.15;11.93;;;;;;;;;;6299312;28;20058;-59
2023/12/03 12:34:03;;;;;;;31.65;11.02;;;;;;;;;;6305631;28;20083;-55
2023/12/03 12:37:08;;;;;;;35.55;10.98;;;;;;;;;;6306776;28;20044;-55
2023/12/03 12:40:11;;;;;;;37.67;12.38;;;;;;;;;;6301275;28;20406;-57
2023/12/03 12:43:14;;;;;;;37.38;11.30;;;;;;;;;;6302890;28;20066;-59
2023/12/03 12:46:15;;;;;;;32.60;11.18;;;;;;;;;;6301199;28;20058;-57
2023/12/03 12:49:16;;;;;;;35.97;11.77;;;;;;;;;;6305865;28;20550;-58
2023/12/03 12:52:17;;;;;;;33.80;11.55;;;;;;;;;;6307231;28;20159;-56
2023/12/03 12:55:34;;;;;;;29.20;10.55;;;;;;;;;;6304807;28;20056;-56
2023/12/03 12:58:38;;;;;;;31.30;9.68;;;;;;;;;;6288822;28;20048;-54
2023/12/03 13:01:42;;;;;;;32.47;10.80;;;;;;;;;;6303653;28;20047;-58
2023/12/03 13:04:43;;;;;;;29.40;10.80;;;;;;;;;;6285681;28;20677;-59
2023/12/03 13:07:43;;;;;;;37.85;11.38;;;;;;;;;;6306541;28;20067;-59
2023/12/03 13:10:44;;;;;;;34.00;11.25;;;;;;;;;;6301656;28;20044;-57
2023/12/03 13:13:45;;;;;;;34.75;11.30;;;;;;;;;;6305217;28;20052;-55
2023/12/03 13:16:45;;;;;;;36.42;11.55;;;;;;;;;;6287081;28;20068;-59
2023/12/03 13:19:46;;;;;;;36.60;11.88;;;;;;;;;;6303637;28;20052;-58
2023/12/03 13:22:49;;;;;;;37.10;11.43;;;;;;;;;;6305347;28;20044;-58
2023/12/03 13:25:50;;;;;;;36.35;11.10;;;;;;;;;;6304103;28;20056;-61
2023/12/03 13:28:51;;;;;;;34.70;12.18;;;;;;;;;;6305778;28;20052;-55
2023/12/03 13:31:54;;;;;;;32.65;11.27;;;;;;;;;;6301099;28;20067;-58
2023/12/03 13:34:54;;;;;;;36.30;12.23;;;;;;;;;;6286690;28;20109;-58
2023/12/03 13:37:55;;;;;;;43.05;13.60;;;;;;;;;;6306786;28;20770;-58
2023/12/03 13:40:56;;;;;;;41.78;12.27;;;;;;;;;;6299698;28;20418;-59
2023/12/03 13:43:58;;;;;;;44.42;12.55;;;;;;;;;;6302499;28;20724;-59
2023/12/03 13:46:59;;;;;;;33.42;10.95;;;;;;;;;;6304496;28;20068;-58
2023/12/03 13:50:00;;;;;;;34.85;11.82;;;;;;;;;;6300596;28;20048;-57
2023/12/03 13:53:02;;;;;;;39.95;11.93;;;;;;;;;;6301397;28;20090;-59
2023/12/03 13:56:03;;;;;;;45.90;12.75;;;;;;;;;;6301147;28;20494;-59
2023/12/03 13:59:07;;;;;;;42.85;12.75;;;;;;;;;;6308169;28;20055;-58
2023/12/03 14:02:09;;;;;;;32.50;11.23;;;;;;;;;;6307038;28;20047;-58
2023/12/03 14:05:10;;;;;;;;;;;;;;;;;;6305491;28;20093;-55
2023/12/03 14:08:11;;;;;;;36.35;11.48;;;;;;;;;;6308095;28;19928;-58
2023/12/03 14:11:13;;;;;;;;;;;;;;;;;;6303694;28;20082;-56
2023/12/03 14:14:14;;;;;;;37.97;11.43;;;;;;;;;;6305542;28;19924;-58
2023/12/03 14:17:15;;;;;;;33.40;10.75;;;;;;;;;;6309009;28;20863;-60
2023/12/03 14:20:16;;;;;;;36.85;13.32;;;;;;;;;;6303565;28;20048;-58
2023/12/03 14:23:17;;;;;;;36.72;13.05;;;;;;;;;;6306662;28;20454;-58
2023/12/03 14:26:17;;;;;;;40.65;12.90;;;;;;;;;;6306314;28;20085;-58
2023/12/03 14:29:18;;;;;;;39.95;13.57;;;;;;;;;;6306019;28;20040;-54
2023/12/03 14:32:20;;;;;;;35.95;12.40;;;;;;;;;;6306464;28;20044;-56
2023/12/03 14:35:20;;;;;;;50.00;16.17;;;;;;;;;;6305106;28;20055;-55
2023/12/03 14:38:21;;;;;;;46.72;15.95;;;;;;;;;;6307942;28;20155;-58
2023/12/03 14:41:22;;;;;;;57.80;17.48;;;;;;;;;;6303834;28;20059;-58
2023/12/03 14:44:23;;;;;;;62.75;18.65;;;;;;;;;;6304319;28;20090;-57
2023/12/03 14:47:23;;;;;;;71.85;21.55;;;;;;;;;;6307840;28;20058;-57
2023/12/03 14:50:25;;;;;;;54.65;18.05;;;;;;;;;;6303062;28;20055;-58
2023/12/03 14:53:26;;;;;;;124.43;35.58;;;;;;;;;;6307006;28;20052;-57
2023/12/03 14:56:28;;;;;;;52.70;17.55;;;;;;;;;;6305424;28;20052;-58
2023/12/03 14:59:29;;;;;;;62.00;22.95;;;;;;;;;;6303881;28;20079;-57
2023/12/03 15:02:31;;;;;;;44.05;15.75;;;;;;;;;;6305989;28;20071;-56
2023/12/03 15:05:32;;;;;;;43.70;15.23;;;;;;;;;;6257325;28;20059;-58
2023/12/03 15:08:33;;;;;;;53.60;16.42;;;;;;;;;;6256542;28;20056;-57
2023/12/03 15:11:35;;;;;;;52.30;18.43;;;;;;;;;;6267562;28;20079;-59
2023/12/03 15:14:36;;;;;;;47.55;17.13;;;;;;;;;;6256598;28;20106;-54
2023/12/03 15:17:37;;;;;;;48.47;16.73;;;;;;;;;;6258429;28;20052;-59
2023/12/03 15:20:39;;;;;;;52.15;16.73;;;;;;;;;;6254769;28;20057;-57
2023/12/03 15:23:42;;;;;;;43.17;15.35;;;;;;;;;;6254695;28;20408;-58
2023/12/03 15:26:42;;;;;;;47.80;15.60;;;;;;;;;;6255524;28;20049;-58
2023/12/03 15:29:43;;;;;;;57.50;15.95;;;;;;;;;;6252958;28;20250;-56
2023/12/03 15:32:44;;;;;;;46.17;14.68;;;;;;;;;;6255326;28;20428;-55
2023/12/03 15:35:45;;;;;;;43.72;14.38;;;;;;;;;;6254380;28;20141;-58
2023/12/03 15:38:45;;;;;;;49.35;16.52;;;;;;;;;;6257008;28;20531;-60
2023/12/03 15:41:46;;;;;;;50.35;15.88;;;;;;;;;;6254639;28;20458;-60
2023/12/03 15:44:47;;;;;;;47.33;15.35;;;;;;;;;;6256569;28;20059;-54
2023/12/03 15:47:50;;;;;;;54.50;17.25;;;;;;;;;;6259269;28;20049;-56
2023/12/03 15:50:50;;;;;;;49.38;15.57;;;;;;;;;;6254196;28;20068;-55
2023/12/03 15:53:52;;;;;;;51.45;17.25;;;;;;;;;;6254281;28;20080;-55
2023/12/03 15:56:54;;;;;;;52.70;17.15;;;;;;;;;;6255265;28;20041;-56
2023/12/03 15:59:54;;;;;;;63.03;21.37;;;;;;;;;;6253427;28;20159;-60
2023/12/03 16:02:59;;;;;;;68.13;22.92;;;;;;;;;;6263134;28;20157;-58
2023/12/03 16:06:00;;;;;;;64.88;24.08;;;;;;;;;;6303961;28;20036;-57
2023/12/03 16:09:00;;;;;;;70.00;24.73;;;;;;;;;;6302739;28;20057;-58
2023/12/03 16:12:01;;;;;;;67.00;21.88;;;;;;;;;;6303143;28;20048;-57
2023/12/03 16:15:03;;;;;;;69.80;21.27;;;;;;;;;;6306086;28;20051;-62
2023/12/03 16:18:04;;;;;;;70.47;22.15;;;;;;;;;;6304755;28;20514;-59
2023/12/03 16:21:05;;;;;;;60.80;21.92;;;;;;;;;;6302471;28;20076;-57
2023/12/03 16:24:06;;;;;;;70.75;22.80;;;;;;;;;;6286508;28;20690;-57
2023/12/03 16:27:07;;;;;;;75.47;24.90;;;;;;;;;;6303477;28;20066;-52
2023/12/03 16:30:08;;;;;;;73.88;25.98;;;;;;;;;;6303818;28;20048;-57
2023/12/03 16:33:10;;;;;;;74.82;24.63;;;;;;;;;;6306578;28;20093;-54
2023/12/03 16:36:11;;;;;;;72.55;26.45;;;;;;;;;;6306563;28;20054;-54
2023/12/03 16:39:11;;;;;;;68.35;26.55;;;;;;;;;;6299392;28;20040;-54
2023/12/03 16:42:13;;;;;;;82.20;28.73;;;;;;;;;;6298764;28;20472;-54
2023/12/03 16:45:14;;;;;;;130.23;40.42;;;;;;;;;;6304716;28;20122;-56
2023/12/03 16:48:17;;;;;;;154.50;43.92;;;;;;;;;;6285259;28;20848;-52
2023/12/03 16:51:18;;;;;;;;;;;;;;;;;;6301487;28;20048;-55
2023/12/03 16:54:19;;;;;;;66.35;21.05;;;;;;;;;;6304102;28;19928;-54
2023/12/03 16:57:20;;;;;;;86.53;26.08;;;;;;;;;;6304437;28;20616;-54
2023/12/03 17:00:22;;;;;;;63.63;21.40;;;;;;;;;;6300255;28;20052;-54
2023/12/03 17:03:23;;;;;;;60.15;19.40;;;;;;;;;;6303498;28;20485;-51
2023/12/03 17:06:24;;;;;;;57.38;18.92;;;;;;;;;;6302709;28;20043;-53
2023/12/03 17:09:25;;;;;;;52.83;18.23;;;;;;;;;;6301188;28;21568;-54
2023/12/03 17:12:26;;;;;;;69.95;27.38;;;;;;;;;;6303632;28;20083;-54
2023/12/03 17:15:28;;;;;;;90.10;37.22;;;;;;;;;;6303954;28;20056;-54
2023/12/03 17:18:29;;;;;;;86.25;33.17;;;;;;;;;;6305396;28;20056;-52
2023/12/03 17:21:30;;;;;;;129.68;43.67;;;;;;;;;;6300644;28;20051;-52
2023/12/03 17:24:30;;;;;;;61.90;23.75;;;;;;;;;;6301758;28;20036;-55
2023/12/03 17:27:31;;;;;;;48.78;16.90;;;;;;;;;;6300792;28;20503;-53
2023/12/03 17:30:32;;;;;;;56.65;19.08;;;;;;;;;;6299126;28;20129;-51
2023/12/03 17:33:33;;;;;;;80.10;27.08;;;;;;;;;;6302771;28;20056;-56
2023/12/03 17:36:34;;;;;;;48.30;16.85;;;;;;;;;;6303012;28;20393;-51
2023/12/03 17:39:37;;;;;;;47.10;17.00;;;;;;;;;;6299277;28;21044;-57
2023/12/03 17:42:39;;;;;;;49.15;17.23;;;;;;;;;;6302130;28;21114;-53